Catalina Provider — WDI6530 — position and weather

sailwx.info

Track history (hours):
 
Tides and Currents Weather Stations Pressure Air Temp Water Temp Dewpoint Dewpoint Depression Visibility Wind Speed Wind Dir Waves Ship Positions

Catalina Provider

Owner: Avalon Freight Service LLC, San Pedro, CA. More information available from US FCC via Universal Licensing System and Coast Guard Vessel Documentation Center.

Last reported at 2017-Sep-21 08:02 UTC. Time now 2017-Sep-25 15:10 UTC.
Position N 33°45' W 118°16'.

Length 45 m; draft 1.7 m.

Type: Cargo ship. MMSI: 367719640.

Date/timePositionNaut miles runAvg speedWind from/ knotsBaromVisibWave heightAir tempDewpointWater temp
2017-Sep-21 08:02N 33°45' W 118°16'0 1.5
2017-Sep-21 08:00N 33°45' W 118°16'2 4.8
2017-Sep-21 07:30N 33°43' W 118°15'6 7.6
2017-Sep-21 06:44N 33°37' W 118°15'2 7.8
2017-Sep-21 06:27N 33°35' W 118°15'6 7.9
2017-Sep-21 05:45N 33°29' W 118°17'4 7.9
2017-Sep-21 05:18N 33°26' W 118°17'3 8.0
2017-Sep-21 04:58N 33°23' W 118°18'3 1.2
2017-Sep-21 02:45N 33°21' W 118°18'13 7.3
2017-Sep-21 00:59N 33°34' W 118°16'4 8.1
2017-Sep-21 00:30N 33°37' W 118°16'4 8.1
2017-Sep-21 00:00N 33°41' W 118°15'3 6.3
2017-Sep-20 23:30N 33°44' W 118°17'1 0.0
2017-Sep-20 08:36N 33°45' W 118°16'0 1.4
2017-Sep-20 08:30N 33°45' W 118°16'3 5.2
2017-Sep-20 07:59N 33°43' W 118°15'4 7.7
2017-Sep-20 07:30N 33°39' W 118°15'5 7.9
2017-Sep-20 06:55N 33°34' W 118°16'6 8.0
2017-Sep-20 06:10N 33°28' W 118°17'1 8.0
2017-Sep-20 06:00N 33°27' W 118°17'4 7.9
2017-Sep-20 05:27N 33°23' W 118°18'3 3.4
2017-Sep-20 04:41N 33°20' W 118°19'16 4.1
2017-Sep-20 00:43N 33°36' W 118°15'2 8.1
2017-Sep-20 00:30N 33°38' W 118°15'4 8.0
2017-Sep-20 00:00N 33°42' W 118°15'3 5.9
2017-Sep-19 23:30N 33°45' W 118°17'0 0.0
2017-Sep-19 08:03N 33°44' W 118°17'0 4.8
2017-Sep-19 07:58N 33°44' W 118°16'4 6.4
2017-Sep-19 07:24N 33°41' W 118°14'4 8.1
2017-Sep-19 06:58N 33°37' W 118°15'4 8.2
2017-Sep-19 06:30N 33°34' W 118°16'4 8.2
2017-Sep-19 06:00N 33°30' W 118°17'4 8.1
2017-Sep-19 05:29N 33°26' W 118°18'4 8.1
2017-Sep-19 05:00N 33°22' W 118°18'1 0.6
2017-Sep-19 02:50N 33°20' W 118°19'1 2.6
2017-Sep-19 02:30N 33°21' W 118°18'17 8.5
2017-Sep-19 00:31N 33°38' W 118°15'0 9.1
2017-Sep-19 00:30N 33°38' W 118°15'4 8.5
2017-Sep-19 00:00N 33°42' W 118°15'3 6.1
2017-Sep-18 23:30N 33°45' W 118°17'0 0.4
2017-Sep-18 22:59N 33°45' W 118°16'0 0.0
2017-Sep-16 22:22N 33°45' W 118°16'0 0.0
2017-Sep-16 22:00N 33°45' W 118°16'2 3.1
2017-Sep-16 21:30N 33°43' W 118°16'4 7.2
2017-Sep-16 21:00N 33°40' W 118°14'4 8.7
2017-Sep-16 20:31N 33°36' W 118°16'10 8.7
2017-Sep-16 19:24N 33°27' W 118°18'4 8.7
2017-Sep-16 18:54N 33°22' W 118°18'2 1.8
2017-Sep-16 17:42N 33°20' W 118°19'0 0.0
2017-Sep-16 17:30N 33°20' W 118°19'0 0.0
2017-Sep-16 16:36N 33°20' W 118°19'0 0.0
2017-Sep-16 16:24N 33°20' W 118°19'0 0.5
2017-Sep-16 16:00N 33°20' W 118°19'17 8.1
2017-Sep-16 13:52N 33°38' W 118°16'4 8.6
2017-Sep-16 13:27N 33°41' W 118°15'3 6.6
2017-Sep-16 13:00N 33°44' W 118°17'1 0.2
2017-Sep-16 08:50N 33°45' W 118°16'2 4.9
2017-Sep-16 08:30N 33°43' W 118°16'3 6.7
2017-Sep-16 08:00N 33°40' W 118°14'4 8.0
2017-Sep-16 07:27N 33°36' W 118°15'4 8.1
2017-Sep-16 06:54N 33°32' W 118°16'3 8.2
2017-Sep-16 06:30N 33°28' W 118°17'4 8.3
2017-Sep-16 05:59N 33°24' W 118°18'11 2.2
2017-Sep-16 01:01N 33°35' W 118°15'0 8.3
2017-Sep-16 01:00N 33°35' W 118°15'4 8.0
2017-Sep-16 00:30N 33°39' W 118°15'4 7.6
2017-Sep-16 00:00N 33°43' W 118°15'2 4.3
2017-Sep-15 23:29N 33°45' W 118°16'0 0.0
2017-Sep-15 08:29N 33°45' W 118°16'2 4.8
2017-Sep-15 08:00N 33°43' W 118°15'4 8.0
2017-Sep-15 07:30N 33°39' W 118°14'4 8.5
2017-Sep-15 07:00N 33°35' W 118°15'3 5.4
2017-Sep-15 06:30N 33°32' W 118°16'5 8.1
2017-Sep-15 05:52N 33°27' W 118°17'4 8.3
2017-Sep-15 05:26N 33°24' W 118°18'3 7.8
2017-Sep-15 05:01N 33°20' W 118°19'0 0.1
2017-Sep-15 02:56N 33°20' W 118°19'14 6.8
2017-Sep-15 00:52N 33°34' W 118°15'4 8.0
2017-Sep-15 00:24N 33°38' W 118°15'3 8.2
2017-Sep-15 00:00N 33°41' W 118°15'4 6.8
2017-Sep-14 23:29N 33°44' W 118°17'1 0.0
2017-Sep-14 08:18N 33°45' W 118°16'1 2.8
2017-Sep-14 08:00N 33°44' W 118°17'3 6.6
2017-Sep-14 07:28N 33°41' W 118°14'4 8.2
2017-Sep-14 07:00N 33°37' W 118°15'4 8.2
2017-Sep-14 06:27N 33°33' W 118°15'6 8.3
2017-Sep-14 05:41N 33°27' W 118°17'2 8.3
2017-Sep-14 05:28N 33°25' W 118°18'4 8.3
2017-Sep-14 04:58N 33°21' W 118°18'16 3.5
2017-Sep-14 00:23N 33°37' W 118°15'3 8.3
2017-Sep-14 00:00N 33°40' W 118°15'4 7.4
2017-Sep-13 23:30N 33°43' W 118°16'2 3.0
2017-Sep-13 23:00N 33°45' W 118°16'0 0.0
2017-Sep-13 22:28N 33°45' W 118°16'0 0.0
2017-Sep-13 18:12N 33°45' W 118°16'1 2.9
2017-Sep-13 18:00N 33°44' W 118°17'4 7.2
2017-Sep-13 17:30N 33°41' W 118°14'4 7.7
2017-Sep-13 17:00N 33°38' W 118°14'4 8.0
2017-Sep-13 16:30N 33°34' W 118°15'5 8.0
2017-Sep-13 15:57N 33°29' W 118°17'4 8.1
2017-Sep-13 15:27N 33°25' W 118°18'4 8.1
2017-Sep-13 15:00N 33°22' W 118°19'2 2.4
2017-Sep-13 14:21N 33°20' W 118°19'0 0.0
2017-Sep-13 14:00N 33°20' W 118°19'2 4.4
2017-Sep-13 13:30N 33°22' W 118°18'4 8.0
2017-Sep-13 12:59N 33°26' W 118°17'4 7.9
2017-Sep-13 12:29N 33°30' W 118°16'4 8.0
2017-Sep-13 12:00N 33°34' W 118°16'4 8.1
2017-Sep-13 11:30N 33°38' W 118°15'4 8.2
2017-Sep-13 11:00N 33°42' W 118°15'3 5.9
2017-Sep-13 10:30N 33°45' W 118°16'0 0.0
2017-Sep-12 17:33N 33°45' W 118°16'0 0.0
2017-Sep-12 17:30N 33°45' W 118°16'0 0.0
2017-Sep-12 17:00N 33°45' W 118°16'0 0.0
2017-Sep-12 07:10N 33°45' W 118°16'0 0.8
2017-Sep-12 07:00N 33°45' W 118°16'3 6.0
2017-Sep-12 06:31N 33°42' W 118°15'4 8.1
2017-Sep-12 06:00N 33°38' W 118°14'4 8.6
2017-Sep-12 05:30N 33°34' W 118°16'4 8.8
2017-Sep-12 05:00N 33°30' W 118°17'4 9.0
2017-Sep-12 04:30N 33°25' W 118°18'5 9.2
2017-Sep-12 04:00N 33°21' W 118°19'0 1.0
2017-Sep-12 03:30N 33°20' W 118°19'0 0.0
2017-Sep-12 03:00N 33°20' W 118°19'0 0.0
2017-Sep-12 02:30N 33°20' W 118°19'0 0.0
2017-Sep-12 02:00N 33°20' W 118°19'0 0.0
2017-Sep-12 01:30N 33°20' W 118°19'2 3.8
2017-Sep-12 01:00N 33°22' W 118°18'4 8.4
2017-Sep-12 00:30N 33°26' W 118°16'4 8.4
2017-Sep-12 00:00N 33°30' W 118°15'4 8.3
2017-Sep-11 23:30N 33°34' W 118°15'4 8.3
2017-Sep-11 23:00N 33°38' W 118°15'4 8.3
2017-Sep-11 22:30N 33°43' W 118°15'3 5.4
2017-Sep-11 22:00N 33°45' W 118°16'  
Track history (hours):
 
Tides and Currents Weather Stations Pressure Air Temp Water Temp Dewpoint Dewpoint Depression Visibility Wind Speed Wind Dir Waves Ship Positions

Catalina Provider

Owner: Avalon Freight Service LLC, San Pedro, CA. More information available from US FCC via Universal Licensing System and Coast Guard Vessel Documentation Center.

Last reported at 2017-Sep-21 08:02 UTC. Time now 2017-Sep-25 15:10 UTC.
Position N 33°45' W 118°16'.

Length 45 m; draft 1.7 m.

Type: Cargo ship. MMSI: 367719640.

Date/timePositionNaut miles runAvg speedWind from/ knotsBaromVisibWave heightAir tempDewpointWater temp
2017-Sep-21 08:02N 33°45' W 118°16'0 1.5
2017-Sep-21 08:00N 33°45' W 118°16'2 4.8
2017-Sep-21 07:30N 33°43' W 118°15'6 7.6
2017-Sep-21 06:44N 33°37' W 118°15'2 7.8
2017-Sep-21 06:27N 33°35' W 118°15'6 7.9
2017-Sep-21 05:45N 33°29' W 118°17'4 7.9
2017-Sep-21 05:18N 33°26' W 118°17'3 8.0
2017-Sep-21 04:58N 33°23' W 118°18'3 1.2
2017-Sep-21 02:45N 33°21' W 118°18'13 7.3
2017-Sep-21 00:59N 33°34' W 118°16'4 8.1
2017-Sep-21 00:30N 33°37' W 118°16'4 8.1
2017-Sep-21 00:00N 33°41' W 118°15'3 6.3
2017-Sep-20 23:30N 33°44' W 118°17'1 0.0
2017-Sep-20 08:36N 33°45' W 118°16'0 1.4
2017-Sep-20 08:30N 33°45' W 118°16'3 5.2
2017-Sep-20 07:59N 33°43' W 118°15'4 7.7
2017-Sep-20 07:30N 33°39' W 118°15'5 7.9
2017-Sep-20 06:55N 33°34' W 118°16'6 8.0
2017-Sep-20 06:10N 33°28' W 118°17'1 8.0
2017-Sep-20 06:00N 33°27' W 118°17'4 7.9
2017-Sep-20 05:27N 33°23' W 118°18'3 3.4
2017-Sep-20 04:41N 33°20' W 118°19'16 4.1
2017-Sep-20 00:43N 33°36' W 118°15'2 8.1
2017-Sep-20 00:30N 33°38' W 118°15'4 8.0
2017-Sep-20 00:00N 33°42' W 118°15'3 5.9
2017-Sep-19 23:30N 33°45' W 118°17'0 0.0
2017-Sep-19 08:03N 33°44' W 118°17'0 4.8
2017-Sep-19 07:58N 33°44' W 118°16'4 6.4
2017-Sep-19 07:24N 33°41' W 118°14'4 8.1
2017-Sep-19 06:58N 33°37' W 118°15'4 8.2
2017-Sep-19 06:30N 33°34' W 118°16'4 8.2
2017-Sep-19 06:00N 33°30' W 118°17'4 8.1
2017-Sep-19 05:29N 33°26' W 118°18'4 8.1
2017-Sep-19 05:00N 33°22' W 118°18'1 0.6
2017-Sep-19 02:50N 33°20' W 118°19'1 2.6
2017-Sep-19 02:30N 33°21' W 118°18'17 8.5
2017-Sep-19 00:31N 33°38' W 118°15'0 9.1
2017-Sep-19 00:30N 33°38' W 118°15'4 8.5
2017-Sep-19 00:00N 33°42' W 118°15'3 6.1
2017-Sep-18 23:30N 33°45' W 118°17'0 0.4
2017-Sep-18 22:59N 33°45' W 118°16'0 0.0
2017-Sep-16 22:22N 33°45' W 118°16'0 0.0
2017-Sep-16 22:00N 33°45' W 118°16'2 3.1
2017-Sep-16 21:30N 33°43' W 118°16'4 7.2
2017-Sep-16 21:00N 33°40' W 118°14'4 8.7
2017-Sep-16 20:31N 33°36' W 118°16'10 8.7
2017-Sep-16 19:24N 33°27' W 118°18'4 8.7
2017-Sep-16 18:54N 33°22' W 118°18'2 1.8
2017-Sep-16 17:42N 33°20' W 118°19'0 0.0
2017-Sep-16 17:30N 33°20' W 118°19'0 0.0
2017-Sep-16 16:36N 33°20' W 118°19'0 0.0
2017-Sep-16 16:24N 33°20' W 118°19'0 0.5
2017-Sep-16 16:00N 33°20' W 118°19'17 8.1
2017-Sep-16 13:52N 33°38' W 118°16'4 8.6
2017-Sep-16 13:27N 33°41' W 118°15'3 6.6
2017-Sep-16 13:00N 33°44' W 118°17'1 0.2
2017-Sep-16 08:50N 33°45' W 118°16'2 4.9
2017-Sep-16 08:30N 33°43' W 118°16'3 6.7
2017-Sep-16 08:00N 33°40' W 118°14'4 8.0
2017-Sep-16 07:27N 33°36' W 118°15'4 8.1
2017-Sep-16 06:54N 33°32' W 118°16'3 8.2
2017-Sep-16 06:30N 33°28' W 118°17'4 8.3
2017-Sep-16 05:59N 33°24' W 118°18'11 2.2
2017-Sep-16 01:01N 33°35' W 118°15'0 8.3
2017-Sep-16 01:00N 33°35' W 118°15'4 8.0
2017-Sep-16 00:30N 33°39' W 118°15'4 7.6
2017-Sep-16 00:00N 33°43' W 118°15'2 4.3
2017-Sep-15 23:29N 33°45' W 118°16'0 0.0
2017-Sep-15 08:29N 33°45' W 118°16'2 4.8
2017-Sep-15 08:00N 33°43' W 118°15'4 8.0
2017-Sep-15 07:30N 33°39' W 118°14'4 8.5
2017-Sep-15 07:00N 33°35' W 118°15'3 5.4
2017-Sep-15 06:30N 33°32' W 118°16'5 8.1
2017-Sep-15 05:52N 33°27' W 118°17'4 8.3
2017-Sep-15 05:26N 33°24' W 118°18'3 7.8
2017-Sep-15 05:01N 33°20' W 118°19'0 0.1
2017-Sep-15 02:56N 33°20' W 118°19'14 6.8
2017-Sep-15 00:52N 33°34' W 118°15'4 8.0
2017-Sep-15 00:24N 33°38' W 118°15'3 8.2
2017-Sep-15 00:00N 33°41' W 118°15'4 6.8
2017-Sep-14 23:29N 33°44' W 118°17'1 0.0
2017-Sep-14 08:18N 33°45' W 118°16'1 2.8
2017-Sep-14 08:00N 33°44' W 118°17'3 6.6
2017-Sep-14 07:28N 33°41' W 118°14'4 8.2
2017-Sep-14 07:00N 33°37' W 118°15'4 8.2
2017-Sep-14 06:27N 33°33' W 118°15'6 8.3
2017-Sep-14 05:41N 33°27' W 118°17'2 8.3
2017-Sep-14 05:28N 33°25' W 118°18'4 8.3
2017-Sep-14 04:58N 33°21' W 118°18'16 3.5
2017-Sep-14 00:23N 33°37' W 118°15'3 8.3
2017-Sep-14 00:00N 33°40' W 118°15'4 7.4
2017-Sep-13 23:30N 33°43' W 118°16'2 3.0
2017-Sep-13 23:00N 33°45' W 118°16'0 0.0
2017-Sep-13 22:28N 33°45' W 118°16'0 0.0
2017-Sep-13 18:12N 33°45' W 118°16'1 2.9
2017-Sep-13 18:00N 33°44' W 118°17'4 7.2
2017-Sep-13 17:30N 33°41' W 118°14'4 7.7
2017-Sep-13 17:00N 33°38' W 118°14'4 8.0
2017-Sep-13 16:30N 33°34' W 118°15'5 8.0
2017-Sep-13 15:57N 33°29' W 118°17'4 8.1
2017-Sep-13 15:27N 33°25' W 118°18'4 8.1
2017-Sep-13 15:00N 33°22' W 118°19'2 2.4
2017-Sep-13 14:21N 33°20' W 118°19'0 0.0
2017-Sep-13 14:00N 33°20' W 118°19'2 4.4
2017-Sep-13 13:30N 33°22' W 118°18'4 8.0
2017-Sep-13 12:59N 33°26' W 118°17'4 7.9
2017-Sep-13 12:29N 33°30' W 118°16'4 8.0
2017-Sep-13 12:00N 33°34' W 118°16'4 8.1
2017-Sep-13 11:30N 33°38' W 118°15'4 8.2
2017-Sep-13 11:00N 33°42' W 118°15'3 5.9
2017-Sep-13 10:30N 33°45' W 118°16'0 0.0
2017-Sep-12 17:33N 33°45' W 118°16'0 0.0
2017-Sep-12 17:30N 33°45' W 118°16'0 0.0
2017-Sep-12 17:00N 33°45' W 118°16'0 0.0
2017-Sep-12 07:10N 33°45' W 118°16'0 0.8
2017-Sep-12 07:00N 33°45' W 118°16'3 6.0
2017-Sep-12 06:31N 33°42' W 118°15'4 8.1
2017-Sep-12 06:00N 33°38' W 118°14'4 8.6
2017-Sep-12 05:30N 33°34' W 118°16'4 8.8
2017-Sep-12 05:00N 33°30' W 118°17'4 9.0
2017-Sep-12 04:30N 33°25' W 118°18'5 9.2
2017-Sep-12 04:00N 33°21' W 118°19'0 1.0
2017-Sep-12 03:30N 33°20' W 118°19'0 0.0
2017-Sep-12 03:00N 33°20' W 118°19'0 0.0
2017-Sep-12 02:30N 33°20' W 118°19'0 0.0
2017-Sep-12 02:00N 33°20' W 118°19'0 0.0
2017-Sep-12 01:30N 33°20' W 118°19'2 3.8
2017-Sep-12 01:00N 33°22' W 118°18'4 8.4
2017-Sep-12 00:30N 33°26' W 118°16'4 8.4
2017-Sep-12 00:00N 33°30' W 118°15'4 8.3
2017-Sep-11 23:30N 33°34' W 118°15'4 8.3
2017-Sep-11 23:00N 33°38' W 118°15'4 8.3
2017-Sep-11 22:30N 33°43' W 118°15'3 5.4
2017-Sep-11 22:00N 33°45' W 118°16'  

Dump ship's entire track history